Time;durP1;ratioP1;P1;durP2;ratioP2;P2;SDS_P1;SDS_P2;PMS_P1;PMS_P2;Temp;Humidity;BMP_temperature;BMP_pressure;BME280_temperature;BME280_humidity;BME280_pressure;Samples;Min_cycle;Max_cycle;Signal;HPM_P1;HPM_P2
2021/11/13 00:00:55;;;;;;;56.05;25.10;;;2.70;99.90;;;;;;6223697;23;20195;-87
2021/11/13 00:03:22;;;;;;;43.42;22.73;;;2.60;99.90;;;;;;6223671;23;20256;-87
2021/11/13 00:05:49;;;;;;;68.82;25.85;;;2.60;99.90;;;;;;6235031;22;20176;-86
2021/11/13 00:08:17;;;;;;;52.47;26.67;;;2.50;99.90;;;;;;6242801;22;20240;-85
2021/11/13 00:10:45;;;;;;;65.90;27.30;;;2.50;99.90;;;;;;6242143;22;20225;-86
2021/11/13 00:13:12;;;;;;;72.32;30.13;;;2.30;99.90;;;;;;6241496;23;20185;-86
2021/11/13 00:15:39;;;;;;;63.25;27.55;;;2.30;99.90;;;;;;6240510;22;20207;-86
2021/11/13 00:18:06;;;;;;;100.88;34.28;;;2.30;99.90;;;;;;6225535;23;20236;-86
2021/11/13 00:20:33;;;;;;;29.23;22.92;;;2.30;99.90;;;;;;6225400;23;20253;-86
2021/11/13 00:23:01;;;;;;;39.38;23.38;;;2.30;99.90;;;;;;6224724;23;20222;-87
2021/11/13 00:25:29;;;;;;;49.90;25.20;;;2.40;99.90;;;;;;6225337;23;20184;-87
2021/11/13 00:27:56;;;;;;;45.85;25.25;;;2.50;99.90;;;;;;6224104;23;20264;-86
2021/11/13 00:30:23;;;;;;;31.27;23.20;;;2.40;99.90;;;;;;6223294;23;20233;-86
2021/11/13 00:32:51;;;;;;;48.80;24.70;;;2.50;99.90;;;;;;6223427;23;20262;-87
2021/11/13 00:35:19;;;;;;;43.78;24.45;;;2.60;99.90;;;;;;6224214;23;20185;-87
2021/11/13 00:37:46;;;;;;;54.97;25.90;;;2.50;99.90;;;;;;6223771;23;20179;-87
2021/11/13 00:40:16;;;;;;;40.45;23.50;;;2.40;99.90;;;;;;6223862;23;20246;-85
2021/11/13 00:42:47;;;;;;;40.92;24.50;;;2.40;99.90;;;;;;6222972;23;20199;-87
2021/11/13 00:45:14;;;;;;;31.40;22.92;;;2.30;99.90;;;;;;6224162;23;20175;-87
2021/11/13 00:47:41;;;;;;;26.58;23.00;;;2.40;99.90;;;;;;6223966;23;20264;-87
2021/11/13 00:50:10;;;;;;;29.95;23.23;;;2.40;99.90;;;;;;6223615;23;20236;-87
2021/11/13 00:52:38;;;;;;;25.50;22.92;;;2.50;99.90;;;;;;6223310;23;20184;-87
2021/11/13 00:55:05;;;;;;;36.92;23.23;;;2.50;99.90;;;;;;6224418;23;20179;-87
2021/11/13 00:57:32;;;;;;;28.15;22.70;;;2.60;99.90;;;;;;6223417;23;20262;-87
2021/11/13 01:00:00;;;;;;;23.45;20.95;;;2.60;99.90;;;;;;6223845;23;20259;-86
2021/11/13 01:02:27;;;;;;;22.50;20.10;;;2.60;99.90;;;;;;6223999;23;20286;-86
2021/11/13 01:04:54;;;;;;;39.22;25.83;;;2.60;99.90;;;;;;6223844;23;20266;-86
2021/11/13 01:07:20;;;;;;;33.08;25.30;;;2.60;99.90;;;;;;6223493;23;20180;-87
2021/11/13 01:09:47;;;;;;;49.10;23.95;;;2.50;99.90;;;;;;6223363;23;20189;-87
2021/11/13 01:12:14;;;;;;;36.80;22.65;;;2.60;99.90;;;;;;6223488;23;20250;-87
2021/11/13 01:14:41;;;;;;;33.58;23.92;;;2.50;99.90;;;;;;6223618;23;20188;-87
2021/11/13 01:17:11;;;;;;;39.72;25.40;;;2.50;99.90;;;;;;6222558;23;20182;-87
2021/11/13 01:19:39;;;;;;;31.67;22.10;;;2.50;99.90;;;;;;6223909;23;20516;-87
2021/11/13 01:22:06;;;;;;;81.85;31.73;;;2.50;99.90;;;;;;6222829;23;20208;-87
2021/11/13 01:24:35;;;;;;;75.68;30.92;;;2.30;99.90;;;;;;6222685;23;20508;-87
2021/11/13 01:27:01;;;;;;;32.97;24.73;;;2.30;99.90;;;;;;6222668;23;20212;-86
2021/11/13 01:29:28;;;;;;;29.52;22.70;;;2.30;99.90;;;;;;6222551;23;20180;-86
2021/11/13 01:31:55;;;;;;;48.20;27.00;;;2.40;99.90;;;;;;6221600;23;20706;-86
2021/11/13 01:34:23;;;;;;;32.55;25.15;;;2.20;99.90;;;;;;6221949;23;20183;-87
2021/11/13 01:36:50;;;;;;;59.40;27.15;;;1.90;99.90;;;;;;6222735;23;20241;-87
2021/11/13 01:39:18;;;;;;;37.30;24.50;;;1.60;99.90;;;;;;6223176;23;20183;-85
2021/11/13 01:41:45;;;;;;;36.53;28.75;;;1.60;99.90;;;;;;6221590;23;20199;-86
2021/11/13 01:44:11;;;;;;;33.55;25.55;;;1.50;99.90;;;;;;6222090;23;20182;-86
2021/11/13 01:46:39;;;;;;;46.03;29.15;;;1.40;99.90;;;;;;6222220;23;20184;-86
2021/11/13 01:49:06;;;;;;;92.93;34.88;;;1.40;99.90;;;;;;6224221;23;20785;-85
2021/11/13 01:51:35;;;;;;;69.80;33.20;;;1.30;99.90;;;;;;6224244;23;20275;-86
2021/11/13 01:54:08;;;;;;;90.95;32.55;;;1.30;99.90;;;;;;6225005;23;20178;-86
2021/11/13 01:56:37;;;;;;;64.90;29.25;;;1.30;99.90;;;;;;6224100;23;20162;-86
2021/11/13 01:59:05;;;;;;;51.10;26.13;;;1.30;99.90;;;;;;6224618;23;20178;-86
2021/11/13 02:01:32;;;;;;;103.47;34.20;;;1.40;99.90;;;;;;6225051;23;20202;-87
2021/11/13 02:03:59;;;;;;;102.10;32.47;;;1.40;99.90;;;;;;6224620;23;20635;-87
2021/11/13 02:06:27;;;;;;;58.70;26.45;;;1.40;99.90;;;;;;6225196;23;20234;-87
2021/11/13 02:08:55;;;;;;;53.50;28.80;;;1.40;99.90;;;;;;6224787;23;20179;-86
2021/11/13 02:11:24;;;;;;;57.85;27.75;;;1.50;99.90;;;;;;6224246;23;20205;-86
2021/11/13 02:13:52;;;;;;;94.78;33.80;;;1.70;99.90;;;;;;6234382;23;20223;-86
2021/11/13 02:16:19;;;;;;;147.48;38.70;;;1.70;99.90;;;;;;6227089;23;20174;-88
2021/11/13 02:18:46;;;;;;;61.60;28.13;;;1.90;99.90;;;;;;6225887;23;20209;-89
2021/11/13 02:21:15;;;;;;;28.92;22.65;;;2.00;99.90;;;;;;6228181;23;20255;-88
2021/11/13 02:23:44;;;;;;;82.15;28.70;;;2.20;99.90;;;;;;6226876;23;20165;-88
2021/11/13 02:26:11;;;;;;;84.88;30.08;;;2.30;99.90;;;;;;6226766;23;20187;-86
2021/11/13 02:28:38;;;;;;;116.95;31.00;;;2.30;99.90;;;;;;6225030;23;20188;-86
2021/11/13 02:31:09;;;;;;;57.20;26.60;;;2.20;99.90;;;;;;6225216;23;20202;-86
2021/11/13 02:33:37;;;;;;;51.72;28.13;;;2.20;99.90;;;;;;6225731;23;20557;-86
2021/11/13 02:36:09;;;;;;;74.10;30.40;;;2.10;99.90;;;;;;6268877;22;20272;-83
2021/11/13 02:38:40;;;;;;;84.63;27.75;;;2.00;99.90;;;;;;6285900;22;20593;-83
2021/11/13 02:41:09;;;;;;;62.38;27.25;;;1.90;99.90;;;;;;6286536;22;20263;-83
2021/11/13 02:43:39;;;;;;;50.17;24.92;;;1.80;99.90;;;;;;6285782;22;20182;-83
2021/11/13 02:46:07;;;;;;;88.35;31.63;;;1.80;99.90;;;;;;6263731;22;20200;-83
2021/11/13 02:48:38;;;;;;;60.15;27.83;;;1.80;99.90;;;;;;6259591;23;20178;-84
2021/11/13 02:51:06;;;;;;;47.38;26.85;;;1.80;99.90;;;;;;6260176;23;20176;-84
2021/11/13 02:53:33;;;;;;;51.95;27.08;;;1.80;99.90;;;;;;6259799;23;20206;-83
2021/11/13 02:56:02;;;;;;;60.70;28.92;;;1.90;99.90;;;;;;6255094;22;20198;-83
2021/11/13 02:58:28;;;;;;;68.22;25.23;;;1.90;99.90;;;;;;6254360;23;20186;-83
2021/11/13 03:00:59;;;;;;;71.47;27.95;;;1.80;99.90;;;;;;6254529;23;20177;-83
2021/11/13 03:03:26;;;;;;;54.50;23.95;;;1.70;99.90;;;;;;6253968;23;20186;-83
2021/11/13 03:05:55;;;;;;;56.17;25.92;;;1.70;99.90;;;;;;6254476;22;20198;-83
2021/11/13 03:08:24;;;;;;;53.10;25.40;;;1.70;99.90;;;;;;6254866;23;20215;-83
2021/11/13 03:10:52;;;;;;;50.20;29.08;;;1.60;99.90;;;;;;6254910;23;20182;-83
2021/11/13 03:13:23;;;;;;;78.88;29.95;;;1.60;99.90;;;;;;6255101;23;20178;-83
2021/11/13 03:15:56;;;;;;;40.92;24.52;;;1.80;99.90;;;;;;6260743;22;20205;-83
2021/11/13 03:21:26;;;;;;;89.70;27.50;;;2.00;99.90;;;;;;6247013;23;20166;-83
2021/11/13 03:23:52;;;;;;;41.50;25.15;;;2.20;99.90;;;;;;6252650;23;20184;-83
2021/11/13 03:26:21;;;;;;;53.42;29.27;;;2.30;99.90;;;;;;6252061;22;20206;-83
2021/11/13 03:28:54;;;;;;;47.55;25.67;;;2.30;99.90;;;;;;6254732;23;20178;-84
2021/11/13 03:31:23;;;;;;;42.70;25.38;;;2.40;99.90;;;;;;6254897;23;20172;-84
2021/11/13 03:33:51;;;;;;;56.08;25.23;;;2.40;99.90;;;;;;6255553;23;20179;-83
2021/11/13 03:36:20;;;;;;;54.47;23.13;;;2.40;99.90;;;;;;6254939;22;20756;-83
2021/11/13 03:38:48;;;;;;;57.50;26.70;;;2.30;99.90;;;;;;6254455;23;20188;-83
2021/11/13 03:41:16;;;;;;;44.45;24.98;;;2.30;99.90;;;;;;6253482;23;20205;-83
2021/11/13 03:43:43;;;;;;;42.95;24.67;;;2.30;99.90;;;;;;6253537;23;20535;-83
2021/11/13 03:46:12;;;;;;;40.78;25.83;;;2.20;99.90;;;;;;6254261;22;20537;-83
2021/11/13 03:48:39;;;;;;;72.38;27.85;;;2.30;99.90;;;;;;6253355;23;20176;-83
2021/11/13 03:51:06;;;;;;;32.25;23.55;;;2.30;99.90;;;;;;6253914;23;20257;-83
2021/11/13 03:53:33;;;;;;;38.70;25.15;;;2.30;99.90;;;;;;6254446;23;20179;-83
2021/11/13 03:56:00;;;;;;;31.13;24.95;;;2.30;99.90;;;;;;6255928;22;20199;-83
2021/11/13 03:58:27;;;;;;;41.53;24.23;;;2.30;99.90;;;;;;6255118;23;20193;-83
2021/11/13 04:00:54;;;;;;;31.73;24.20;;;2.40;99.90;;;;;;6255276;23;20182;-83
2021/11/13 04:03:22;;;;;;;53.83;27.45;;;2.40;99.90;;;;;;6255183;23;20193;-83
2021/11/13 04:05:49;;;;;;;43.67;24.48;;;2.40;99.90;;;;;;6256201;22;20206;-83
2021/11/13 04:08:16;;;;;;;49.60;26.88;;;2.40;99.90;;;;;;6255368;23;20521;-83
2021/11/13 04:10:43;;;;;;;50.67;27.25;;;2.50;99.90;;;;;;6255399;23;20179;-83
2021/11/13 04:13:10;;;;;;;57.08;28.80;;;2.40;99.90;;;;;;6254105;23;20182;-83
2021/11/13 04:15:37;;;;;;;41.25;23.75;;;2.40;99.90;;;;;;6253594;22;20203;-83
2021/11/13 04:18:04;;;;;;;51.65;28.42;;;2.50;99.90;;;;;;6252491;23;20189;-83
2021/11/13 04:20:32;;;;;;;44.13;25.17;;;2.50;99.90;;;;;;6252773;23;20190;-83
2021/11/13 04:22:59;;;;;;;47.95;24.02;;;2.50;99.90;;;;;;6251947;23;20205;-83
2021/11/13 04:25:27;;;;;;;41.75;27.65;;;2.40;99.90;;;;;;6253003;22;20203;-83
2021/11/13 04:27:54;;;;;;;42.78;25.85;;;2.40;99.90;;;;;;6252969;23;20184;-83
2021/11/13 04:30:21;;;;;;;45.33;28.60;;;2.50;99.90;;;;;;6253967;23;20491;-83
2021/11/13 04:32:50;;;;;;;40.70;25.95;;;2.50;99.90;;;;;;6254706;23;20176;-83
2021/11/13 04:35:21;;;;;;;34.10;24.77;;;2.50;99.90;;;;;;6254708;22;20212;-83
2021/11/13 04:37:52;;;;;;;25.80;23.05;;;2.60;99.90;;;;;;6256281;23;20168;-83
2021/11/13 04:40:20;;;;;;;28.17;22.80;;;2.60;99.90;;;;;;6254942;23;20169;-83
2021/11/13 04:42:47;;;;;;;23.35;20.83;;;2.60;99.90;;;;;;6254133;23;20200;-83
2021/11/13 04:45:14;;;;;;;27.08;22.63;;;2.60;99.90;;;;;;6254458;22;20225;-83
2021/11/13 04:47:41;;;;;;;26.20;23.40;;;2.60;99.90;;;;;;6254133;23;20182;-83
2021/11/13 04:50:11;;;;;;;25.83;22.17;;;2.60;99.90;;;;;;6254069;23;20185;-83
2021/11/13 04:52:37;;;;;;;28.63;23.45;;;2.60;99.90;;;;;;6255500;23;20180;-84
2021/11/13 04:55:07;;;;;;;23.30;20.80;;;2.60;99.90;;;;;;6254666;22;20202;-83
2021/11/13 04:57:34;;;;;;;23.95;21.30;;;2.60;99.90;;;;;;6255139;23;20179;-83
2021/11/13 05:00:00;;;;;;;26.92;20.48;;;2.60;99.90;;;;;;6256757;23;20180;-83
2021/11/13 05:02:27;;;;;;;27.95;23.10;;;2.60;99.90;;;;;;6257167;23;20195;-83
2021/11/13 05:04:55;;;;;;;27.17;22.63;;;2.70;99.90;;;;;;6256433;22;20214;-83
2021/11/13 05:07:23;;;;;;;26.60;21.95;;;2.80;99.90;;;;;;6256821;23;20185;-83
2021/11/13 05:09:50;;;;;;;22.90;20.48;;;2.90;99.90;;;;;;6257189;23;20200;-83
2021/11/13 05:12:19;;;;;;;23.13;20.77;;;2.90;99.90;;;;;;6256322;23;20654;-83
2021/11/13 05:14:46;;;;;;;26.85;22.60;;;3.00;99.90;;;;;;6257803;22;20199;-83
2021/11/13 05:17:12;;;;;;;25.77;21.13;;;3.10;99.90;;;;;;6258621;23;20183;-84
2021/11/13 05:19:39;;;;;;;22.70;20.25;;;3.20;99.90;;;;;;6257412;23;20239;-83
2021/11/13 05:29:15;;;;;;;25.63;21.75;;;3.40;99.90;;;;;;6169430;23;20182;-84
2021/11/13 05:31:43;;;;;;;23.80;18.63;;;3.50;99.90;;;;;;6156179;23;20188;-83
2021/11/13 05:34:13;;;;;;;24.48;20.88;;;3.40;99.90;;;;;;6162404;23;20181;-83
2021/11/13 05:36:46;;;;;;;22.13;19.92;;;3.40;99.90;;;;;;6228830;23;20235;-83
2021/11/13 05:39:14;;;;;;;24.60;21.88;;;3.50;99.90;;;;;;6257407;23;20174;-83
2021/11/13 05:41:42;;;;;;;25.90;23.05;;;3.50;99.90;;;;;;6256912;23;20186;-83
2021/11/13 05:44:16;;;;;;;23.40;20.95;;;3.50;99.90;;;;;;6256873;23;20216;-83
2021/11/13 05:46:44;;;;;;;22.88;20.48;;;3.60;99.90;;;;;;6254684;22;20209;-83
2021/11/13 05:49:11;;;;;;;23.55;21.15;;;3.60;99.90;;;;;;6253727;23;20356;-83
2021/11/13 05:51:38;;;;;;;20.67;17.98;;;3.60;99.90;;;;;;6253839;23;20237;-83
2021/11/13 05:54:05;;;;;;;24.48;21.08;;;3.60;99.90;;;;;;6253162;23;20184;-83
2021/11/13 05:56:32;;;;;;;21.90;19.80;;;3.60;99.90;;;;;;6253500;22;20234;-83
2021/11/13 05:58:59;;;;;;;23.90;21.45;;;3.60;99.90;;;;;;6253658;23;20211;-83
2021/11/13 06:01:26;;;;;;;22.92;20.40;;;3.60;99.90;;;;;;6253945;23;20183;-83
2021/11/13 06:03:54;;;;;;;24.50;21.10;;;3.60;99.90;;;;;;6257075;23;20417;-83
2021/11/13 06:06:21;;;;;;;23.58;21.17;;;3.50;99.90;;;;;;6259636;22;20227;-84
2021/11/13 06:08:47;;;;;;;22.48;20.08;;;3.50;99.90;;;;;;6259690;23;20184;-83
2021/11/13 06:11:14;;;;;;;22.52;20.23;;;3.60;99.90;;;;;;6259118;23;20176;-83
2021/11/13 06:13:41;;;;;;;24.15;20.90;;;3.60;99.90;;;;;;6259239;23;20173;-84
2021/11/13 06:16:09;;;;;;;23.73;21.30;;;3.70;99.90;;;;;;6258230;22;20210;-84
2021/11/13 06:18:36;;;;;;;24.20;21.65;;;3.70;99.90;;;;;;6257997;23;20183;-83
2021/11/13 06:21:06;;;;;;;24.60;19.67;;;3.70;99.90;;;;;;6259032;23;20203;-84
2021/11/13 06:23:33;;;;;;;22.17;19.55;;;3.70;99.90;;;;;;6257458;23;20196;-84
2021/11/13 06:26:00;;;;;;;22.35;20.05;;;3.70;99.90;;;;;;6258075;22;20196;-84
2021/11/13 06:28:27;;;;;;;22.48;20.10;;;3.60;99.90;;;;;;6258540;23;20185;-84
2021/11/13 06:30:53;;;;;;;21.40;19.27;;;3.60;99.90;;;;;;6257409;23;20184;-83
2021/11/13 06:33:20;;;;;;;23.98;20.27;;;3.60;99.90;;;;;;6256727;23;20232;-83
2021/11/13 06:35:47;;;;;;;20.17;18.08;;;3.50;99.90;;;;;;6255108;22;20212;-83
2021/11/13 06:38:16;;;;;;;22.73;17.90;;;3.50;99.90;;;;;;6254590;23;20188;-83
2021/11/13 06:40:43;;;;;;;24.42;20.75;;;3.40;99.90;;;;;;6254142;23;20188;-83
2021/11/13 06:43:10;;;;;;;24.60;22.00;;;3.30;99.90;;;;;;6254719;23;20204;-83
2021/11/13 06:45:37;;;;;;;21.50;19.15;;;3.20;99.90;;;;;;6254161;22;20203;-83
2021/11/13 06:48:05;;;;;;;24.38;19.40;;;3.20;99.90;;;;;;6254178;23;20187;-83
2021/11/13 06:50:33;;;;;;;24.85;21.10;;;3.20;99.90;;;;;;6268022;23;20184;-82
2021/11/13 06:53:00;;;;;;;25.58;21.13;;;3.20;99.90;;;;;;6271352;23;20191;-82
2021/11/13 06:55:28;;;;;;;24.20;20.58;;;3.10;99.90;;;;;;6271643;22;20256;-82
2021/11/13 06:57:55;;;;;;;24.23;21.05;;;3.20;99.90;;;;;;6259260;23;20187;-84
2021/11/13 07:00:22;;;;;;;22.92;20.50;;;3.20;99.90;;;;;;6255626;23;20263;-83
2021/11/13 07:02:49;;;;;;;21.50;19.08;;;3.30;99.90;;;;;;6254173;23;20192;-83
2021/11/13 07:05:16;;;;;;;25.60;21.83;;;3.30;99.90;;;;;;6256013;22;20197;-83
2021/11/13 07:07:43;;;;;;;21.23;18.63;;;3.30;99.90;;;;;;6255575;23;20189;-83
2021/11/13 07:10:12;;;;;;;21.15;19.13;;;3.40;99.90;;;;;;6256626;23;20217;-83
2021/11/13 07:12:41;;;;;;;23.27;20.48;;;3.40;99.90;;;;;;6257101;23;20180;-83
2021/11/13 07:15:09;;;;;;;22.98;20.58;;;3.50;99.90;;;;;;6261801;22;20207;-83
2021/11/13 07:17:35;;;;;;;23.50;20.05;;;3.60;99.90;;;;;;6264231;23;20522;-83
2021/11/13 07:20:04;;;;;;;22.83;20.33;;;3.70;99.90;;;;;;6265217;23;20187;-83
2021/11/13 07:22:30;;;;;;;23.15;20.77;;;3.80;99.90;;;;;;6264162;23;20187;-83
2021/11/13 07:24:57;;;;;;;24.50;21.40;;;3.90;99.90;;;;;;6264579;22;20207;-83
2021/11/13 07:27:24;;;;;;;21.98;18.05;;;4.00;99.90;;;;;;6264510;23;20211;-83
2021/11/13 07:30:00;;;;;;;21.42;19.38;;;4.10;99.90;;;;;;6262988;23;20187;-83
2021/11/13 07:32:29;;;;;;;24.35;21.85;;;4.20;99.90;;;;;;6262333;23;20221;-83
2021/11/13 07:34:55;;;;;;;20.05;17.92;;;4.30;99.90;;;;;;6261470;22;20215;-83
2021/11/13 07:37:24;;;;;;;20.60;18.40;;;4.30;99.90;;;;;;6259288;23;20322;-83
2021/11/13 07:39:51;;;;;;;21.55;18.75;;;4.30;99.90;;;;;;6260137;23;20232;-83
2021/11/13 07:42:19;;;;;;;20.33;18.10;;;4.40;99.90;;;;;;6259893;23;20176;-83
2021/11/13 07:44:47;;;;;;;21.65;19.40;;;4.40;99.90;;;;;;6263399;22;20197;-83
2021/11/13 07:47:16;;;;;;;22.33;19.42;;;4.50;99.90;;;;;;6259844;23;20185;-83
2021/11/13 07:49:43;;;;;;;22.10;18.38;;;4.50;99.90;;;;;;6254015;23;20183;-83
2021/11/13 07:52:10;;;;;;;17.75;15.93;;;4.60;99.90;;;;;;6254358;23;20184;-83
2021/11/13 07:54:37;;;;;;;19.13;17.38;;;4.60;99.90;;;;;;6254902;22;20650;-83
2021/11/13 07:57:06;;;;;;;23.80;21.55;;;4.60;99.90;;;;;;6255839;23;20187;-83
2021/11/13 07:59:33;;;;;;;20.13;18.23;;;4.60;99.90;;;;;;6255424;23;20184;-83
2021/11/13 08:02:00;;;;;;;18.98;17.15;;;4.50;99.90;;;;;;6254909;23;20181;-83
2021/11/13 08:04:28;;;;;;;21.98;18.17;;;4.60;99.90;;;;;;6255235;22;20203;-83
2021/11/13 08:06:55;;;;;;;19.98;17.90;;;4.60;99.90;;;;;;6255764;23;20199;-83
2021/11/13 08:09:22;;;;;;;19.35;17.30;;;4.70;99.90;;;;;;6255060;23;20181;-83
2021/11/13 08:11:49;;;;;;;22.17;17.85;;;4.80;99.90;;;;;;6253677;23;20237;-83
2021/11/13 08:14:15;;;;;;;22.83;17.45;;;4.90;99.90;;;;;;6256430;23;20177;-83
2021/11/13 08:19:23;;;;;;;21.08;18.45;;;5.20;99.90;;;;;;6253545;23;20502;-83
2021/11/13 08:21:51;;;;;;;19.33;17.42;;;5.40;99.90;;;;;;6251279;23;20183;-81
2021/11/13 08:24:20;;;;;;;19.83;17.48;;;5.60;99.90;;;;;;6251845;23;20204;-82
2021/11/13 08:26:47;;;;;;;18.08;16.27;;;5.70;99.90;;;;;;6251129;23;20181;-82
2021/11/13 08:29:14;;;;;;;18.27;16.25;;;5.90;99.90;;;;;;6253196;23;20604;-83
2021/11/13 08:31:41;;;;;;;16.70;15.10;;;6.00;99.90;;;;;;6252934;23;20181;-83
2021/11/13 08:34:08;;;;;;;17.92;16.23;;;6.10;99.90;;;;;;6253575;23;20173;-83
2021/11/13 08:56:31;;;;;;;14.32;12.82;;;7.60;99.90;;;;;;6085038;23;20729;-82
2021/11/13 08:58:59;;;;;;;17.20;14.18;;;7.80;99.90;;;;;;6167950;23;20206;-82
2021/11/13 09:01:29;;;;;;;15.45;13.10;;;7.90;99.90;;;;;;6206727;23;20654;-81
2021/11/13 09:03:57;;;;;;;15.25;13.75;;;8.00;99.90;;;;;;6264318;23;20180;-81
2021/11/13 09:06:30;;;;;;;13.32;12.23;;;8.10;99.90;;;;;;6267643;23;20193;-80
2021/11/13 09:08:59;;;;;;;12.85;11.55;;;8.20;99.90;;;;;;6268316;23;20169;-81
2021/11/13 09:11:32;;;;;;;11.38;10.38;;;8.20;99.90;;;;;;6266475;23;20181;-83
2021/11/13 09:14:00;;;;;;;10.40;9.50;;;8.20;99.90;;;;;;6263375;23;20196;-82
2021/11/13 09:16:27;;;;;;;12.07;10.88;;;8.30;99.90;;;;;;6257864;23;20220;-85
2021/11/13 09:18:54;;;;;;;10.95;10.02;;;8.30;99.90;;;;;;6260469;23;20182;-82
2021/11/13 09:21:23;;;;;;;10.77;9.70;;;8.30;99.90;;;;;;6260540;23;20181;-84
2021/11/13 09:23:50;;;;;;;11.23;10.10;;;8.30;99.90;;;;;;6257667;23;20193;-84
2021/11/13 09:26:17;;;;;;;12.10;10.80;;;8.40;99.90;;;;;;6260284;23;20212;-83
2021/11/13 09:28:45;;;;;;;13.18;11.93;;;8.40;99.90;;;;;;6258293;23;20536;-82
2021/11/13 09:31:13;;;;;;;12.57;11.52;;;8.50;99.90;;;;;;6257033;23;20585;-82
2021/11/13 09:33:40;;;;;;;13.10;11.90;;;8.60;99.90;;;;;;6258356;23;20510;-84
2021/11/13 09:36:12;;;;;;;13.55;12.32;;;8.80;99.90;;;;;;6257601;23;20272;-84
2021/11/13 09:38:42;;;;;;;15.32;13.82;;;8.90;99.90;;;;;;6257926;23;20158;-85
2021/11/13 09:41:19;;;;;;;15.75;14.27;;;9.10;99.90;;;;;;6256613;23;20216;-84
2021/11/13 09:43:51;;;;;;;15.00;13.60;;;9.20;99.90;;;;;;6231909;23;20194;-84
2021/11/13 10:13:48;;;;;;;17.07;10.07;;;12.10;99.90;;;;;;6162202;23;20410;-83
2021/11/13 10:30:15;;;;;;;13.37;10.70;;;11.50;99.90;;;;;;6145235;23;20381;-83
2021/11/13 10:43:33;;;;;;;11.13;10.03;;;11.10;99.90;;;;;;6073737;23;20176;-83
2021/11/13 10:52:02;;;;;;;7.77;7.20;;;11.30;99.90;;;;;;6231097;22;20404;-83
2021/11/13 10:57:53;;;;;;;6.50;5.60;;;11.70;99.90;;;;;;6261176;22;20410;-80
2021/11/13 11:00:39;;;;;;;9.87;9.00;;;11.80;99.90;;;;;;6271703;23;20384;-83
2021/11/13 11:03:07;;;;;;;7.13;6.47;;;11.90;99.90;;;;;;6261385;23;20459;-83
2021/11/13 11:05:45;;;;;;;8.37;7.67;;;12.10;99.90;;;;;;6253820;23;20465;-84
2021/11/13 11:08:30;;;;;;;9.63;8.73;;;12.30;99.90;;;;;;6255064;23;20729;-82
2021/11/13 11:10:57;;;;;;;8.03;7.40;;;12.40;99.90;;;;;;6255516;23;20395;-83
2021/11/13 11:13:47;;;;;;;8.60;7.40;;;12.50;99.90;;;;;;6251389;23;20420;-82
2021/11/13 11:16:38;;;;;;;9.27;8.13;;;12.50;99.90;;;;;;6252824;23;20432;-82
2021/11/13 11:19:07;;;;;;;8.73;7.83;;;12.50;99.90;;;;;;6252631;23;20420;-82
2021/11/13 11:21:41;;;;;;;8.87;7.90;;;12.50;99.90;;;;;;6254644;23;20418;-82
2021/11/13 11:24:12;;;;;;;10.93;9.30;;;12.40;99.90;;;;;;6249581;23;20440;-82
2021/11/13 11:26:40;;;;;;;10.20;8.67;;;12.40;99.90;;;;;;6251182;23;20439;-83
2021/11/13 11:29:08;;;;;;;9.73;8.83;;;12.40;99.90;;;;;;6251052;23;20498;-82
2021/11/13 11:31:43;;;;;;;8.97;8.27;;;12.30;99.90;;;;;;6250784;23;20430;-81
2021/11/13 11:34:26;;;;;;;13.10;9.57;;;12.30;99.90;;;;;;6251050;23;20399;-82
2021/11/13 11:36:55;;;;;;;10.83;9.73;;;12.20;99.90;;;;;;6252090;23;20437;-85
2021/11/13 11:39:24;;;;;;;10.57;9.47;;;12.20;99.90;;;;;;6257103;23;20408;-84
2021/11/13 11:41:52;;;;;;;11.07;9.97;;;12.20;99.90;;;;;;6255243;23;20408;-84
2021/11/13 11:44:20;;;;;;;10.23;9.33;;;12.20;99.90;;;;;;6254732;23;20813;-83
2021/11/13 11:46:47;;;;;;;10.50;9.37;;;12.20;99.90;;;;;;6255508;23;20433;-83
2021/11/13 11:49:15;;;;;;;9.77;8.97;;;12.10;99.90;;;;;;6256307;23;20423;-84
2021/11/13 11:51:42;;;;;;;8.60;7.90;;;12.00;99.90;;;;;;6255878;23;20411;-84
2021/11/13 11:54:09;;;;;;;11.40;10.33;;;12.00;99.90;;;;;;6254919;23;20408;-83
2021/11/13 11:56:38;;;;;;;13.13;11.97;;;11.90;99.90;;;;;;6254076;22;20441;-83
2021/11/13 11:59:06;;;;;;;13.87;12.47;;;11.80;99.90;;;;;;6253815;23;20482;-84
2021/11/13 12:01:35;;;;;;;9.37;8.57;;;11.80;99.90;;;;;;6254522;23;20527;-84
2021/11/13 12:04:10;;;;;;;8.37;7.20;;;11.60;99.90;;;;;;6253853;23;20439;-82
2021/11/13 12:06:44;;;;;;;7.87;7.17;;;11.50;99.90;;;;;;6249364;23;20763;-82
2021/11/13 12:09:15;;;;;;;8.30;7.50;;;11.50;99.90;;;;;;6249720;23;20392;-83
2021/11/13 12:11:44;;;;;;;6.17;5.57;;;11.40;99.90;;;;;;6254906;23;20399;-83
2021/11/13 12:14:37;;;;;;;7.10;6.50;;;11.40;99.90;;;;;;6254841;23;20423;-83
2021/11/13 12:17:29;;;;;;;6.90;6.30;;;11.40;99.90;;;;;;6251308;23;20433;-84
2021/11/13 12:20:23;;;;;;;7.30;6.40;;;11.20;99.90;;;;;;6255478;23;20402;-84
2021/11/13 12:22:52;;;;;;;7.40;6.70;;;11.30;99.90;;;;;;6254638;23;20402;-85
2021/11/13 12:25:21;;;;;;;7.60;6.87;;;11.30;99.90;;;;;;6253882;23;20457;-86
2021/11/13 12:28:15;;;;;;;7.77;7.13;;;11.20;99.90;;;;;;6253419;23;20407;-85
2021/11/13 12:30:54;;;;;;;10.60;6.80;;;11.30;99.90;;;;;;6253745;23;20475;-83
2021/11/13 12:33:55;;;;;;;7.33;6.63;;;11.20;99.90;;;;;;6255492;23;20421;-83
2021/11/13 12:36:30;;;;;;;5.83;5.33;;;11.20;99.90;;;;;;6255051;23;20439;-84
2021/11/13 12:39:07;;;;;;;6.87;5.73;;;11.20;99.90;;;;;;6253830;23;20462;-84
2021/11/13 12:41:52;;;;;;;6.13;5.37;;;11.20;99.90;;;;;;6253228;23;20870;-85
2021/11/13 12:44:32;;;;;;;5.83;5.33;;;11.00;99.90;;;;;;6253271;23;20441;-84
2021/11/13 12:47:12;;;;;;;6.37;5.77;;;11.00;99.90;;;;;;6253518;23;20435;-84
2021/11/13 12:49:54;;;;;;;6.27;5.77;;;11.00;99.90;;;;;;6254437;23;20398;-84
2021/11/13 12:52:33;;;;;;;6.80;5.37;;;11.10;99.90;;;;;;6253658;23;20399;-85
2021/11/13 12:55:13;;;;;;;5.90;5.40;;;11.00;99.90;;;;;;6254880;23;20432;-84
2021/11/13 12:57:44;;;;;;;5.10;4.60;;;11.20;99.90;;;;;;6223656;23;20411;-84
2021/11/13 13:00:22;;;;;;;6.37;4.93;;;11.20;99.90;;;;;;6224893;23;20408;-84
2021/11/13 13:02:48;;;;;;;6.10;5.50;;;11.30;99.90;;;;;;6224209;23;20420;-84
2021/11/13 13:05:17;;;;;;;5.50;5.00;;;11.30;99.90;;;;;;6223804;23;20451;-84
2021/11/13 13:07:53;;;;;;;6.97;4.90;;;11.40;99.90;;;;;;6224125;23;20411;-84
2021/11/13 13:10:20;;;;;;;4.80;4.40;;;11.50;99.90;;;;;;6229845;23;20406;-83
2021/11/13 13:12:48;;;;;;;9.73;5.30;;;11.50;99.90;;;;;;6242107;23;20418;-84
2021/11/13 13:15:20;;;;;;;5.70;5.20;;;11.40;99.90;;;;;;6241772;23;20428;-84
2021/11/13 13:17:50;;;;;;;6.10;5.50;;;11.30;99.90;;;;;;6242611;23;20463;-84
2021/11/13 13:20:24;;;;;;;6.33;5.83;;;11.30;99.90;;;;;;6241690;23;20455;-84
2021/11/13 13:22:58;;;;;;;5.87;5.33;;;11.20;99.90;;;;;;6224073;23;20395;-84
2021/11/13 13:25:24;;;;;;;6.60;5.90;;;11.30;99.90;;;;;;6223675;23;20455;-85
2021/11/13 13:27:57;;;;;;;6.43;5.83;;;11.30;99.90;;;;;;6223199;23;20415;-84
2021/11/13 13:30:27;;;;;;;8.13;5.53;;;11.20;99.90;;;;;;6223793;23;20406;-85
2021/11/13 13:32:54;;;;;;;7.10;6.50;;;11.20;99.90;;;;;;6224381;23;20498;-85
2021/11/13 13:35:23;;;;;;;8.77;5.60;;;11.30;99.90;;;;;;6226018;23;20428;-84
2021/11/13 13:37:53;;;;;;;7.47;6.87;;;11.20;99.90;;;;;;6223683;23;20450;-84
2021/11/13 13:40:23;;;;;;;6.70;5.90;;;11.10;99.90;;;;;;6223733;23;20406;-85
2021/11/13 13:42:52;;;;;;;10.30;6.83;;;11.10;99.90;;;;;;6224141;23;20467;-85
2021/11/13 13:45:21;;;;;;;7.47;6.77;;;11.00;99.90;;;;;;6226054;23;20455;-84
2021/11/13 13:47:52;;;;;;;6.33;5.60;;;10.90;99.90;;;;;;6225139;23;20410;-85
2021/11/13 13:50:19;;;;;;;7.50;6.70;;;10.90;99.90;;;;;;6226479;23;20482;-84
2021/11/13 13:52:47;;;;;;;10.20;7.47;;;10.90;99.90;;;;;;6228007;23;20412;-86
2021/11/13 13:55:17;;;;;;;7.07;6.37;;;10.80;99.90;;;;;;6226770;23;20434;-85
2021/11/13 13:57:57;;;;;;;8.90;8.10;;;10.80;99.90;;;;;;6226049;23;20425;-84
2021/11/13 14:00:25;;;;;;;6.18;5.68;;;10.70;99.90;;;;;;6226924;23;20727;-85
2021/11/13 14:02:53;;;;;;;6.72;5.80;;;10.70;99.90;;;;;;6226578;23;20179;-85
2021/11/13 14:05:22;;;;;;;6.37;5.87;;;10.60;99.90;;;;;;6224861;23;20209;-85
2021/11/13 14:07:49;;;;;;;8.00;7.40;;;10.70;99.90;;;;;;6225380;23;20420;-85
2021/11/13 14:10:17;;;;;;;7.23;6.57;;;10.60;99.90;;;;;;6225252;23;20419;-86
2021/11/13 14:12:48;;;;;;;6.60;6.00;;;10.60;99.90;;;;;;6224857;23;20418;-85
2021/11/13 14:15:18;;;;;;;8.07;7.27;;;10.60;99.90;;;;;;6227215;23;20204;-84
2021/11/13 14:17:45;;;;;;;9.67;7.00;;;10.70;99.90;;;;;;6225689;23;20525;-85
2021/11/13 14:20:20;;;;;;;7.53;6.77;;;10.80;99.90;;;;;;6225498;23;20411;-85
2021/11/13 14:23:04;;;;;;;8.88;7.78;;;10.80;99.90;;;;;;6224816;23;20395;-85